Time;durP1;ratioP1;P1;durP2;ratioP2;P2;SDS_P1;SDS_P2;PMS_P1;PMS_P2;Temp;Humidity;BMP_temperature;BMP_pressure;BME280_temperature;BME280_humidity;BME280_pressure;Samples;Min_cycle;Max_cycle;Signal;HPM_P1;HPM_P2
2024/04/20 00:01:04;;;;;;;0.90;0.60;;;;;;;6.19;100.00;99715.78;6581809;21;20233;-70
2024/04/20 00:03:39;;;;;;;1.02;0.70;;;;;;;6.08;100.00;99722.56;6583511;21;20216;-70
2024/04/20 00:06:13;;;;;;;2.30;1.92;;;;;;;6.12;100.00;99718.44;6581451;21;20224;-71
2024/04/20 00:08:48;;;;;;;6.68;0.88;;;;;;;6.05;100.00;99723.78;6580415;21;20274;-72
2024/04/20 00:11:20;;;;;;;0.90;0.70;;;;;;;6.09;100.00;99726.91;6579154;21;20236;-69
2024/04/20 00:14:00;;;;;;;1.88;0.70;;;;;;;6.10;100.00;99725.84;6579741;21;20266;-70
2024/04/20 00:16:34;;;;;;;1.50;1.35;;;;;;;6.07;100.00;99739.69;6581673;21;20290;-70
2024/04/20 00:19:07;;;;;;;1.65;1.55;;;;;;;6.00;100.00;99736.97;6585449;21;20309;-71
2024/04/20 00:25:21;;;;;;;0.90;0.70;;;;;;;5.95;100.00;99749.38;6580543;21;20714;-71
2024/04/20 00:27:53;;;;;;;1.30;1.20;;;;;;;5.84;100.00;99752.59;6580060;21;20279;-71
2024/04/20 00:30:25;;;;;;;4.45;1.00;;;;;;;6.00;100.00;99752.28;6579713;21;20228;-71
2024/04/20 00:33:00;;;;;;;1.15;1.02;;;;;;;5.89;100.00;99760.91;6580056;21;20289;-70
2024/04/20 00:35:37;;;;;;;1.55;0.80;;;;;;;5.83;100.00;99767.88;6584099;21;20228;-69
2024/04/20 00:38:10;;;;;;;2.90;1.30;;;;;;;5.92;100.00;99777.44;6581156;21;20228;-70
2024/04/20 00:40:40;;;;;;;0.90;0.70;;;;;;;5.85;100.00;99773.88;6579599;21;20240;-70
2024/04/20 00:43:20;;;;;;;1.48;0.93;;;;;;;5.80;100.00;99772.81;6578597;21;20314;-70
2024/04/20 00:45:54;;;;;;;0.80;0.50;;;;;;;5.85;100.00;99781.94;6578594;21;20276;-69
2024/04/20 00:48:36;;;;;;;1.50;0.80;;;;;;;5.85;100.00;99789.16;6578670;21;20263;-71
2024/04/20 00:51:09;;;;;;;1.15;0.90;;;;;;;5.89;100.00;99787.75;6577678;21;20321;-70
2024/04/20 00:53:43;;;;;;;1.55;0.80;;;;;;;5.89;100.00;99801.19;6578152;21;20228;-70
2024/04/20 00:56:15;;;;;;;4.50;1.50;;;;;;;5.87;100.00;99796.00;6580413;21;20220;-71
2024/04/20 00:58:49;;;;;;;2.00;1.65;;;;;;;5.80;100.00;99805.03;6577886;21;20232;-71
2024/04/20 01:01:23;;;;;;;1.08;0.80;;;;;;;5.85;100.00;99810.63;6577939;21;20283;-71
2024/04/20 01:04:01;;;;;;;1.27;0.88;;;;;;;5.85;100.00;99802.56;6577740;21;20590;-70
2024/04/20 01:06:33;;;;;;;1.00;0.90;;;;;;;5.80;100.00;99821.13;6577928;21;20580;-69
2024/04/20 01:09:08;;;;;;;0.82;0.65;;;;;;;5.79;100.00;99820.28;6577726;21;20225;-70
2024/04/20 01:11:44;;;;;;;1.40;1.10;;;;;;;5.69;100.00;99815.28;6577563;21;20619;-70
2024/04/20 01:14:16;;;;;;;0.80;0.50;;;;;;;5.71;100.00;99816.94;6578377;21;20223;-70
2024/04/20 01:16:49;;;;;;;0.85;0.57;;;;;;;5.74;100.00;99829.97;6577725;21;20531;-70
2024/04/20 01:19:29;;;;;;;1.60;0.80;;;;;;;5.71;100.00;99833.06;6580095;21;20565;-70
2024/04/20 01:22:02;;;;;;;0.80;0.60;;;;;;;5.78;100.00;99833.91;6579773;21;20292;-71
2024/04/20 01:24:37;;;;;;;0.95;0.85;;;;;;;5.71;100.00;99839.25;6578053;21;20376;-70
2024/04/20 01:27:15;;;;;;;1.20;0.95;;;;;;;5.83;100.00;99837.66;6578866;21;20274;-71
2024/04/20 01:29:47;;;;;;;1.48;1.38;;;;;;;5.77;100.00;99841.13;6580495;21;20298;-71
2024/04/20 01:32:23;;;;;;;0.80;0.50;;;;;;;5.76;100.00;99849.41;6579781;21;20341;-71
2024/04/20 01:34:55;;;;;;;3.50;1.58;;;;;;;5.73;100.00;99855.13;6580405;21;20269;-69
2024/04/20 01:37:28;;;;;;;0.82;0.55;;;;;;;5.73;100.00;99850.59;6578856;21;20330;-70
2024/04/20 01:40:00;;;;;;;1.20;0.77;;;;;;;5.77;100.00;99859.09;6578035;21;20236;-70
2024/04/20 01:42:37;;;;;;;2.33;1.30;;;;;;;5.72;100.00;99856.16;6578026;21;20252;-70
2024/04/20 01:45:11;;;;;;;0.80;0.50;;;;;;;5.74;100.00;99862.19;6586873;21;20603;-71
2024/04/20 01:47:47;;;;;;;0.90;0.70;;;;;;;5.90;100.00;99864.59;6583211;21;20227;-71
2024/04/20 01:50:20;;;;;;;0.80;0.60;;;;;;;5.76;100.00;99876.25;6579569;21;20224;-71
2024/04/20 01:52:53;;;;;;;2.35;1.17;;;;;;;5.71;100.00;99878.69;6578395;21;20313;-71
2024/04/20 01:55:29;;;;;;;0.95;0.65;;;;;;;5.69;100.00;99890.44;6578268;21;20270;-71
2024/04/20 01:58:09;;;;;;;0.90;0.75;;;;;;;5.72;100.00;99894.56;6577998;21;20227;-70
2024/04/20 02:00:44;;;;;;;0.90;0.60;;;;;;;5.77;100.00;99896.66;6581206;21;20251;-71
2024/04/20 02:03:17;;;;;;;0.90;0.68;;;;;;;5.76;100.00;99903.09;6579829;21;20243;-71
2024/04/20 02:05:49;;;;;;;1.52;1.15;;;;;;;5.68;100.00;99906.72;6579473;21;20259;-68
2024/04/20 02:08:23;;;;;;;1.42;0.60;;;;;;;5.65;100.00;99910.66;6578029;21;20228;-70
2024/04/20 02:10:55;;;;;;;0.90;0.60;;;;;;;5.63;100.00;99915.38;6578406;21;20235;-70
2024/04/20 02:13:31;;;;;;;0.80;0.50;;;;;;;5.64;100.00;99917.03;6578699;21;20255;-72
2024/04/20 02:16:05;;;;;;;9.38;1.20;;;;;;;5.61;100.00;99924.66;6580609;21;20268;-70
2024/04/20 02:18:38;;;;;;;0.90;0.60;;;;;;;5.63;100.00;99931.47;6577495;21;20228;-69
2024/04/20 02:21:18;;;;;;;3.53;0.90;;;;;;;5.59;100.00;99938.25;6577986;21;20240;-70
2024/04/20 02:23:53;;;;;;;1.60;1.50;;;;;;;5.52;100.00;99942.72;6577264;21;20224;-69
2024/04/20 02:26:27;;;;;;;0.80;0.50;;;;;;;5.51;100.00;99957.19;6576637;21;20235;-70
2024/04/20 02:29:04;;;;;;;0.88;0.63;;;;;;;5.44;100.00;99953.59;6579715;21;20600;-68
2024/04/20 02:31:38;;;;;;;1.45;0.98;;;;;;;5.39;100.00;99963.22;6577471;21;20274;-70
2024/04/20 02:34:11;;;;;;;0.90;0.70;;;;;;;5.28;100.00;99971.78;6577697;21;20694;-71
2024/04/20 02:36:44;;;;;;;0.95;0.85;;;;;;;5.16;100.00;99974.13;6534367;21;20247;-70
2024/04/20 02:39:20;;;;;;;0.80;0.50;;;;;;;5.11;100.00;99972.03;6576850;21;20287;-70
2024/04/20 02:41:53;;;;;;;0.80;0.50;;;;;;;5.16;100.00;99985.69;6577348;21;20796;-68
2024/04/20 02:44:30;;;;;;;0.80;0.50;;;;;;;5.03;100.00;100001.63;6576930;21;20228;-69
2024/04/20 02:47:06;;;;;;;0.80;0.50;;;;;;;5.00;100.00;99999.31;6579564;21;20295;-70
2024/04/20 02:49:43;;;;;;;0.80;0.50;;;;;;;4.91;100.00;100019.22;6577833;21;20220;-70
2024/04/20 02:52:16;;;;;;;0.80;0.50;;;;;;;4.90;100.00;100022.91;6543889;21;20254;-70
2024/04/20 02:54:52;;;;;;;0.80;0.50;;;;;;;4.88;100.00;100026.81;6583213;21;20548;-69
2024/04/20 02:57:28;;;;;;;0.80;0.50;;;;;;;4.84;100.00;100030.88;6579616;21;20328;-70
2024/04/20 03:00:11;;;;;;;1.63;1.15;;;;;;;4.76;100.00;100046.03;6536362;21;20216;-69
2024/04/20 03:02:46;;;;;;;0.80;0.50;;;;;;;4.67;100.00;100041.78;6579208;21;20248;-70
2024/04/20 03:05:19;;;;;;;0.80;0.57;;;;;;;4.83;100.00;100059.53;6582048;21;20229;-69
2024/04/20 03:07:59;;;;;;;2.05;0.70;;;;;;;4.75;100.00;100057.75;6579800;21;20678;-71
2024/04/20 03:10:37;;;;;;;1.98;1.50;;;;;;;4.73;100.00;100061.66;6582147;21;20354;-70
2024/04/20 03:13:11;;;;;;;2.00;0.95;;;;;;;4.70;100.00;100070.88;6581498;21;20280;-70
2024/04/20 03:16:05;;;;;;;0.80;0.50;;;;;;;4.70;100.00;100072.72;6579458;21;20329;-69
2024/04/20 03:18:38;;;;;;;0.80;0.50;;;;;;;4.61;100.00;100085.38;6579633;21;20255;-69
2024/04/20 03:21:13;;;;;;;0.80;0.50;;;;;;;4.61;100.00;100077.34;6578968;21;20326;-70
2024/04/20 03:23:59;;;;;;;0.80;0.70;;;;;;;4.53;100.00;100101.56;6578864;21;20550;-70
2024/04/20 03:26:42;;;;;;;0.80;0.50;;;;;;;4.48;100.00;100095.91;6581128;21;20266;-68
2024/04/20 03:29:15;;;;;;;0.80;0.50;;;;;;;4.46;100.00;100100.59;6579160;21;20270;-69
2024/04/20 03:31:54;;;;;;;0.80;0.57;;;;;;;4.43;100.00;100108.19;6578641;21;20548;-69
2024/04/20 03:34:30;;;;;;;0.80;0.50;;;;;;;4.43;100.00;100117.06;6581117;21;20224;-69
2024/04/20 03:37:12;;;;;;;0.90;0.60;;;;;;;4.40;100.00;100120.09;6579290;21;20317;-72
2024/04/20 03:39:48;;;;;;;0.80;0.60;;;;;;;4.42;100.00;100125.25;6579167;21;20228;-70
2024/04/20 03:42:25;;;;;;;1.90;1.40;;;;;;;4.42;100.00;100135.97;6581162;21;20298;-69
2024/04/20 03:44:59;;;;;;;1.67;1.58;;;;;;;4.37;100.00;100141.88;6578741;21;20722;-70
2024/04/20 03:47:36;;;;;;;0.80;0.50;;;;;;;4.41;100.00;100145.84;6578885;21;20315;-69
2024/04/20 03:50:11;;;;;;;0.90;0.60;;;;;;;4.38;100.00;100151.59;6579133;21;20236;-70
2024/04/20 03:52:49;;;;;;;0.80;0.70;;;;;;;4.37;100.00;100164.13;6578638;21;20278;-71
2024/04/20 03:55:28;;;;;;;0.90;0.60;;;;;;;4.36;100.00;100164.31;6578805;21;20224;-70
2024/04/20 03:58:01;;;;;;;1.48;0.60;;;;;;;4.35;100.00;100165.34;6578651;21;20266;-68
2024/04/20 04:00:36;;;;;;;1.00;0.50;;;;;;;4.33;100.00;100183.44;6588481;21;20256;-69
2024/04/20 04:03:15;;;;;;;0.80;0.50;;;;;;;4.34;100.00;100187.78;6578691;21;20232;-70
2024/04/20 04:05:49;;;;;;;0.80;0.50;;;;;;;4.31;100.00;100182.75;6578394;21;20274;-69
2024/04/20 04:08:24;;;;;;;0.80;0.50;;;;;;;4.31;100.00;100204.19;6578792;21;20216;-70
2024/04/20 04:10:58;;;;;;;0.80;0.50;;;;;;;4.28;100.00;100204.56;6578704;21;20252;-69
2024/04/20 04:13:32;;;;;;;0.80;0.50;;;;;;;4.26;100.00;100210.09;6579004;21;20231;-69
2024/04/20 04:16:09;;;;;;;2.95;1.50;;;;;;;4.22;100.00;100216.81;6579167;21;20231;-69
2024/04/20 04:18:49;;;;;;;0.90;0.70;;;;;;;4.19;100.00;100219.03;6578819;21;20275;-70
2024/04/20 04:21:24;;;;;;;0.80;0.50;;;;;;;4.17;100.00;100231.75;6581498;21;20586;-71
2024/04/20 04:23:59;;;;;;;0.80;0.60;;;;;;;4.26;100.00;100241.41;6578969;21;20224;-70
2024/04/20 04:26:34;;;;;;;0.80;0.50;;;;;;;4.21;100.00;100251.81;6579421;21;20228;-70
2024/04/20 04:29:07;;;;;;;1.00;0.70;;;;;;;4.16;100.00;100254.19;6579379;21;20227;-71
2024/04/20 04:31:40;;;;;;;1.00;0.80;;;;;;;4.25;100.00;100258.50;6578782;21;20240;-71
2024/04/20 04:34:25;;;;;;;0.80;0.50;;;;;;;4.24;100.00;100256.81;6578937;21;20220;-71
2024/04/20 04:36:58;;;;;;;0.80;0.50;;;;;;;4.24;100.00;100278.25;6578809;21;20295;-71
2024/04/20 04:39:32;;;;;;;0.80;0.70;;;;;;;4.23;100.00;100277.41;6578071;21;20244;-70
2024/04/20 04:42:06;;;;;;;0.80;0.50;;;;;;;4.23;100.00;100288.13;6578673;21;20267;-69
2024/04/20 04:44:51;;;;;;;0.80;0.50;;;;;;;4.26;100.00;100297.66;6578420;21;20228;-70
2024/04/20 04:47:24;;;;;;;0.80;0.50;;;;;;;4.29;100.00;100313.38;6578294;21;20275;-70
2024/04/20 04:50:00;;;;;;;0.80;0.60;;;;;;;4.23;100.00;100309.53;6535161;21;20695;-70
2024/04/20 04:52:36;;;;;;;0.80;0.50;;;;;;;4.25;100.00;100314.72;6578306;21;20248;-70
2024/04/20 04:55:11;;;;;;;0.80;0.50;;;;;;;4.26;100.00;100324.44;6578239;21;20263;-70
2024/04/20 04:57:49;;;;;;;0.80;0.50;;;;;;;4.33;100.00;100331.59;6578480;21;20224;-71
2024/04/20 05:00:26;;;;;;;0.80;0.50;;;;;;;4.43;100.00;100341.25;6577803;21;20274;-70
2024/04/20 05:03:04;;;;;;;0.80;0.50;;;;;;;4.34;100.00;100343.13;6578407;21;20220;-69
2024/04/20 05:05:49;;;;;;;0.80;0.50;;;;;;;4.31;100.00;100354.19;6577971;21;20329;-69
2024/04/20 05:08:29;;;;;;;0.80;0.50;;;;;;;4.26;100.00;100353.91;6585518;21;20326;-71
2024/04/20 05:11:02;;;;;;;0.90;0.60;;;;;;;4.26;100.00;100368.09;6580258;21;20232;-70
2024/04/20 05:13:35;;;;;;;0.82;0.63;;;;;;;4.25;100.00;100365.63;6578038;21;20228;-70
2024/04/20 05:16:09;;;;;;;1.42;0.80;;;;;;;4.23;100.00;100372.97;6577930;21;20224;-69
2024/04/20 05:18:42;;;;;;;0.80;0.50;;;;;;;4.26;100.00;100378.81;6578060;21;20320;-70
2024/04/20 05:21:21;;;;;;;0.85;0.60;;;;;;;4.25;100.00;100392.41;6577949;21;20235;-71
2024/04/20 05:23:53;;;;;;;0.80;0.50;;;;;;;4.34;100.00;100399.41;6577940;21;20272;-71
2024/04/20 05:26:34;;;;;;;0.80;0.50;;;;;;;4.40;100.00;100406.75;6577876;21;20317;-71
2024/04/20 05:29:06;;;;;;;0.80;0.50;;;;;;;4.44;100.00;100412.56;6578142;21;20224;-71
2024/04/20 05:31:42;;;;;;;0.80;0.50;;;;;;;4.50;100.00;100407.38;6577787;21;20290;-71
2024/04/20 05:34:17;;;;;;;0.80;0.60;;;;;;;4.50;100.00;100426.13;6577749;21;20271;-69
2024/04/20 05:36:53;;;;;;;1.40;0.80;;;;;;;4.52;100.00;100426.75;6577570;21;20223;-70
2024/04/20 05:39:26;;;;;;;0.80;0.60;;;;;;;4.61;100.00;100436.44;6577711;21;20531;-70
2024/04/20 05:42:00;;;;;;;0.90;0.70;;;;;;;4.63;100.00;100445.16;6581032;21;20241;-70
2024/04/20 05:44:41;;;;;;;0.80;0.50;;;;;;;4.53;100.00;100449.88;6538846;21;20548;-71
2024/04/20 05:47:17;;;;;;;0.90;0.50;;;;;;;4.55;100.00;100453.19;6580435;21;20232;-71
2024/04/20 05:49:52;;;;;;;1.00;0.60;;;;;;;4.49;100.00;100458.44;6580291;21;20217;-70
2024/04/20 05:52:33;;;;;;;0.80;0.60;;;;;;;4.42;100.00;100463.66;6577842;21;20758;-69
2024/04/20 05:55:14;;;;;;;0.90;0.70;;;;;;;4.30;100.00;100473.91;6577549;21;20687;-70
2024/04/20 05:57:49;;;;;;;0.80;0.50;;;;;;;4.22;100.00;100478.44;6579894;21;20588;-71
2024/04/20 06:00:26;;;;;;;1.10;0.75;;;;;;;4.30;100.00;100481.94;6577610;21;20253;-68
2024/04/20 06:03:08;;;;;;;2.08;0.60;;;;;;;4.34;100.00;100488.63;6535194;21;20224;-71
2024/04/20 06:05:46;;;;;;;1.52;0.93;;;;;;;4.43;100.00;100499.31;6577584;21;20314;-70
2024/04/20 06:08:22;;;;;;;1.55;0.77;;;;;;;4.51;100.00;100510.84;6577932;21;20262;-70
2024/04/20 06:13:45;;;;;;;0.90;0.75;;;;;;;4.56;100.00;100524.56;6577657;21;20224;-70
2024/04/20 06:16:18;;;;;;;7.57;1.85;;;;;;;4.70;100.00;100529.19;6583671;21;20375;-71
2024/04/20 06:19:03;;;;;;;1.55;1.00;;;;;;;4.93;100.00;100536.50;6577725;21;20623;-70
2024/04/20 06:21:46;;;;;;;1.60;1.23;;;;;;;4.93;99.85;100540.00;6577217;21;20278;-70
2024/04/20 06:24:31;;;;;;;3.97;3.55;;;;;;;4.86;98.38;100546.22;6577691;21;20220;-69
2024/04/20 06:27:06;;;;;;;0.98;0.88;;;;;;;4.93;98.00;100552.59;6579589;21;20732;-69
2024/04/20 06:29:44;;;;;;;1.10;0.93;;;;;;;5.04;97.64;100550.34;6582126;21;20274;-70
2024/04/20 06:32:21;;;;;;;1.20;1.10;;;;;;;5.19;96.10;100566.53;6580002;21;20304;-71
2024/04/20 06:34:54;;;;;;;1.67;1.30;;;;;;;5.01;96.07;100571.31;6580473;21;20777;-69
2024/04/20 06:37:30;;;;;;;0.98;0.88;;;;;;;5.08;94.95;100572.31;6579383;21;20267;-69
2024/04/20 06:43:07;;;;;;;0.93;0.82;;;;;;;5.14;94.01;100595.72;6579662;21;20232;-70
2024/04/20 06:45:59;;;;;;;0.93;0.73;;;;;;;4.99;92.27;100590.25;6579568;21;20701;-69
2024/04/20 06:48:33;;;;;;;1.95;0.80;;;;;;;4.86;93.00;100594.47;6579771;21;20722;-69
2024/04/20 06:51:12;;;;;;;0.90;0.70;;;;;;;4.87;93.56;100598.84;6573291;21;20255;-70
2024/04/20 06:53:48;;;;;;;0.80;0.60;;;;;;;4.89;93.92;100602.22;6579911;21;20272;-70
2024/04/20 06:56:34;;;;;;;2.47;2.28;;;;;;;4.93;95.01;100603.53;6580015;21;20337;-70
2024/04/20 06:59:10;;;;;;;1.90;1.63;;;;;;;4.85;94.25;100612.41;6579487;21;20288;-70
2024/04/20 07:01:46;;;;;;;1.55;1.42;;;;;;;4.96;93.33;100616.56;6579353;21;20266;-71
2024/04/20 07:04:20;;;;;;;0.90;0.70;;;;;;;5.13;92.07;100623.56;6579339;21;20232;-70
2024/04/20 07:06:52;;;;;;;0.80;0.50;;;;;;;5.45;90.22;100628.78;6579792;21;20666;-69
2024/04/20 07:09:24;;;;;;;1.45;0.70;;;;;;;5.90;87.87;100627.22;6581969;21;20782;-70
2024/04/20 07:12:04;;;;;;;1.42;1.10;;;;;;;6.33;85.65;100634.59;6581094;21;20236;-70
2024/04/20 07:14:40;;;;;;;0.80;0.50;;;;;;;6.52;81.72;100639.47;6581404;21;20216;-69
2024/04/20 07:17:21;;;;;;;0.93;0.75;;;;;;;6.70;81.74;100640.97;6579135;21;20236;-70
2024/04/20 07:19:54;;;;;;;1.00;0.88;;;;;;;7.03;81.42;100653.06;6579464;21;20236;-71
2024/04/20 07:22:29;;;;;;;1.48;0.98;;;;;;;6.60;78.41;100659.22;6582754;21;20240;-71
2024/04/20 07:25:03;;;;;;;1.00;0.80;;;;;;;6.15;78.09;100663.63;6584550;21;20219;-71
2024/04/20 07:27:44;;;;;;;0.80;0.52;;;;;;;6.03;79.63;100671.28;6579126;21;20398;-70
2024/04/20 07:30:19;;;;;;;4.50;2.97;;;;;;;6.06;79.75;100675.44;6579564;21;20228;-70
2024/04/20 07:32:54;;;;;;;1.00;0.70;;;;;;;6.27;78.94;100678.31;6579582;21;20274;-70
2024/04/20 07:35:29;;;;;;;0.90;0.77;;;;;;;6.21;79.08;100670.97;6579222;21;20254;-69
2024/04/20 07:38:07;;;;;;;1.10;1.00;;;;;;;6.33;79.35;100688.34;6578879;21;20224;-70
2024/04/20 07:40:43;;;;;;;0.80;0.57;;;;;;;6.59;78.35;100695.19;6579225;21;20422;-70
2024/04/20 07:43:32;;;;;;;2.40;1.92;;;;;;;6.99;77.91;100706.41;6581833;21;20244;-70
2024/04/20 07:46:08;;;;;;;1.50;1.40;;;;;;;7.23;76.95;100708.00;6579171;21;20267;-70
2024/04/20 07:48:47;;;;;;;0.90;0.60;;;;;;;6.83;77.46;100717.31;6578745;21;20232;-70
2024/04/20 07:54:08;;;;;;;1.95;1.38;;;;;;;6.55;79.89;100722.44;6579242;21;20313;-70
2024/04/20 07:56:52;;;;;;;0.80;0.60;;;;;;;6.34;79.55;100740.25;6578816;21;20267;-70
2024/04/20 07:59:47;;;;;;;2.03;1.50;;;;;;;6.27;80.68;100744.66;6579494;21;20215;-70
2024/04/20 08:02:23;;;;;;;5.75;1.25;;;;;;;6.38;78.77;100731.66;6579084;21;20240;-69
2024/04/20 08:05:06;;;;;;;1.13;0.65;;;;;;;6.26;79.03;100743.81;6580988;21;20270;-70
2024/04/20 08:08:04;;;;;;;1.23;1.00;;;;;;;6.26;78.83;100751.03;6578504;21;20259;-71
2024/04/20 08:10:43;;;;;;;1.00;0.70;;;;;;;6.50;78.25;100770.53;6580863;21;20213;-69
2024/04/20 08:13:42;;;;;;;0.95;0.85;;;;;;;6.66;75.67;100774.97;6578749;21;20660;-70
2024/04/20 08:16:19;;;;;;;1.30;0.88;;;;;;;6.76;77.07;100774.72;6578578;21;20259;-70
2024/04/20 08:18:57;;;;;;;1.10;1.00;;;;;;;6.83;75.90;100772.97;6578403;21;20235;-70
2024/04/20 08:21:33;;;;;;;1.50;0.93;;;;;;;7.19;74.70;100790.16;6578196;21;20325;-71
2024/04/20 08:24:11;;;;;;;1.38;0.98;;;;;;;7.19;73.91;100790.16;6578381;21;20224;-71
2024/04/20 08:26:47;;;;;;;0.85;0.63;;;;;;;7.10;72.88;100788.56;6580357;21;20250;-69
2024/04/20 08:29:44;;;;;;;1.02;0.60;;;;;;;7.43;71.73;100791.75;6577564;21;20334;-70
2024/04/20 08:32:28;;;;;;;0.80;0.55;;;;;;;8.01;69.65;100801.69;6578301;21;20248;-71
2024/04/20 08:35:03;;;;;;;1.00;0.70;;;;;;;8.65;67.69;100824.28;6580404;21;20292;-68
2024/04/20 08:37:39;;;;;;;1.00;0.60;;;;;;;8.13;70.54;100812.84;6577986;21;20271;-70
2024/04/20 08:43:05;;;;;;;1.20;0.85;;;;;;;7.10;73.34;100826.22;6578128;21;20672;-70
2024/04/20 08:45:47;;;;;;;1.10;0.98;;;;;;;6.89;77.34;100839.50;6578774;21;20254;-70
2024/04/20 08:48:25;;;;;;;1.98;0.95;;;;;;;6.15;82.52;100840.13;6577896;21;20232;-71
2024/04/20 08:51:03;;;;;;;1.33;0.70;;;;;;;6.41;83.94;100837.97;6578392;21;20674;-70
2024/04/20 08:53:44;;;;;;;3.10;1.40;;;;;;;6.47;80.02;100843.50;6577952;21;20282;-70
2024/04/20 08:56:22;;;;;;;0.90;0.60;;;;;;;7.14;78.69;100846.38;6579584;21;20330;-71
2024/04/20 08:59:05;;;;;;;2.00;1.45;;;;;;;7.59;75.27;100858.91;6579561;21;20227;-70
2024/04/20 09:01:42;;;;;;;1.77;0.90;;;;;;;7.76;71.52;100851.50;6579077;21;20702;-70
2024/04/20 09:04:21;;;;;;;0.90;0.80;;;;;;;7.89;66.25;100870.53;6579109;21;20216;-71
2024/04/20 09:06:58;;;;;;;1.10;0.60;;;;;;;7.71;68.88;100867.38;6579135;21;20287;-70
2024/04/20 09:09:33;;;;;;;2.95;1.10;;;;;;;8.06;65.72;100877.44;6578512;21;20275;-70
2024/04/20 09:12:08;;;;;;;2.20;1.38;;;;;;;7.68;65.74;100886.59;6578122;21;20707;-70
2024/04/20 09:14:43;;;;;;;1.00;0.77;;;;;;;7.56;66.91;100891.59;6580335;21;20216;-71
2024/04/20 09:17:20;;;;;;;2.22;1.38;;;;;;;7.88;66.62;100887.75;6578248;21;20223;-68
2024/04/20 09:20:01;;;;;;;1.60;0.70;;;;;;;7.60;67.62;100892.88;6577800;21;20251;-70
2024/04/20 09:22:37;;;;;;;2.75;1.38;;;;;;;7.91;66.76;100900.84;6577684;21;20240;-71
2024/04/20 09:25:12;;;;;;;0.90;0.63;;;;;;;8.09;66.93;100895.91;6581082;21;20232;-70
2024/04/20 09:27:44;;;;;;;2.22;0.95;;;;;;;8.11;65.42;100901.13;6577454;21;20223;-71
2024/04/20 09:30:21;;;;;;;1.58;1.48;;;;;;;7.81;65.98;100901.09;6577777;21;20223;-70
2024/04/20 09:32:54;;;;;;;1.17;0.50;;;;;;;7.49;66.00;100905.97;6577091;21;20721;-70
2024/04/20 09:35:30;;;;;;;1.10;0.75;;;;;;;7.16;69.47;100908.94;6578148;21;20719;-70
2024/04/20 09:38:04;;;;;;;1.45;0.88;;;;;;;7.22;71.16;100915.44;6578200;21;20280;-71
2024/04/20 09:40:37;;;;;;;2.05;0.68;;;;;;;7.38;71.87;100909.94;6577520;21;20562;-70
2024/04/20 09:43:11;;;;;;;1.00;0.80;;;;;;;7.77;69.56;100920.50;6577971;21;20228;-70
2024/04/20 09:45:54;;;;;;;1.90;0.70;;;;;;;8.02;67.98;100918.41;6579978;21;20227;-69
2024/04/20 09:48:30;;;;;;;0.80;0.60;;;;;;;8.15;66.12;100924.81;6580517;21;20328;-68
2024/04/20 09:51:15;;;;;;;1.40;1.30;;;;;;;8.16;65.94;100929.19;6578298;21;20236;-71
2024/04/20 09:54:07;;;;;;;1.00;0.55;;;;;;;8.36;62.80;100924.13;6577615;21;20272;-69
2024/04/20 09:56:53;;;;;;;3.67;1.35;;;;;;;7.77;64.42;100920.50;6579876;21;20270;-70
2024/04/20 09:59:28;;;;;;;1.10;0.60;;;;;;;7.72;65.32;100922.91;6577948;21;20270;-70
2024/04/20 10:02:06;;;;;;;0.90;0.60;;;;;;;7.89;66.35;100929.81;6580024;21;20243;-70
2024/04/20 10:04:44;;;;;;;5.85;4.05;;;;;;;7.94;64.93;100931.97;6579950;21;20275;-70
2024/04/20 10:07:29;;;;;;;1.83;1.67;;;;;;;7.39;66.95;100942.06;6580798;21;20219;-70
2024/04/20 10:10:10;;;;;;;3.35;1.52;;;;;;;7.14;68.13;100947.78;6580823;21;20227;-70
2024/04/20 10:15:41;;;;;;;0.90;0.50;;;;;;;7.43;67.87;100951.44;6582377;21;20279;-69
2024/04/20 10:18:15;;;;;;;2.92;1.40;;;;;;;7.74;63.21;100951.38;6580362;21;20675;-71
2024/04/20 10:20:50;;;;;;;6.35;4.68;;;;;;;8.26;62.23;100955.88;6582428;21;20258;-70
2024/04/20 10:23:38;;;;;;;5.38;2.13;;;;;;;8.58;56.33;100954.69;6580373;21;20223;-70
2024/04/20 10:26:14;;;;;;;1.02;0.73;;;;;;;8.52;55.58;100952.75;6578581;21;20236;-71
2024/04/20 10:28:47;;;;;;;2.05;0.82;;;;;;;8.98;54.78;100964.09;6580012;21;20246;-68
2024/04/20 10:31:30;;;;;;;2.38;1.40;;;;;;;8.94;56.84;100963.66;6579265;21;20252;-69
2024/04/20 10:34:03;;;;;;;1.33;0.55;;;;;;;8.72;56.92;100964.59;6582112;21;20223;-70
2024/04/20 10:37:02;;;;;;;0.80;0.50;;;;;;;8.47;59.83;100979.44;6579985;21;20259;-70
2024/04/20 10:39:38;;;;;;;1.85;1.25;;;;;;;7.27;72.00;100985.72;6580592;21;20216;-69
2024/04/20 10:42:16;;;;;;;0.90;0.65;;;;;;;6.46;79.06;100989.66;6580046;21;20243;-68
2024/04/20 10:44:53;;;;;;;1.20;0.50;;;;;;;6.19;82.17;100989.25;6582240;21;20262;-70
2024/04/20 10:47:30;;;;;;;2.35;0.60;;;;;;;6.34;83.17;101000.97;6579510;21;20271;-71
2024/04/20 10:50:01;;;;;;;0.90;0.80;;;;;;;6.55;83.76;100987.78;6580943;21;20750;-71
2024/04/20 10:52:33;;;;;;;2.95;1.45;;;;;;;7.02;82.93;100998.47;6580884;21;20280;-70
2024/04/20 10:55:15;;;;;;;1.00;0.80;;;;;;;7.37;80.42;100997.94;6581847;21;20602;-69
2024/04/20 10:57:50;;;;;;;1.30;0.73;;;;;;;7.22;80.77;100997.00;6583350;21;20228;-69
2024/04/20 11:00:33;;;;;;;0.90;0.65;;;;;;;7.19;79.56;100997.38;6542931;21;20228;-70
2024/04/20 11:03:13;;;;;;;1.90;0.88;;;;;;;7.71;77.49;101008.28;6584845;21;20232;-70
2024/04/20 11:06:06;;;;;;;1.92;1.27;;;;;;;7.57;76.90;101005.53;6588339;21;20224;-69
2024/04/20 11:08:44;;;;;;;1.52;1.00;;;;;;;7.18;76.48;101011.84;6586566;21;20267;-70
2024/04/20 11:11:32;;;;;;;1.20;1.00;;;;;;;7.46;77.71;101014.00;6586734;21;20287;-69
2024/04/20 11:14:08;;;;;;;2.85;1.35;;;;;;;7.50;75.88;101016.19;6586140;21;20232;-70
2024/04/20 11:16:44;;;;;;;1.00;0.65;;;;;;;7.78;74.73;101013.78;6588229;21;20219;-70
2024/04/20 11:19:20;;;;;;;2.63;1.15;;;;;;;8.11;73.15;101009.78;6586051;21;20224;-69
2024/04/20 11:21:53;;;;;;;3.75;3.05;;;;;;;8.03;71.73;101020.66;6585908;21;20239;-68
2024/04/20 11:24:26;;;;;;;1.90;1.55;;;;;;;8.07;72.35;101023.81;6588940;21;20263;-69
2024/04/20 11:27:20;;;;;;;1.55;1.33;;;;;;;7.75;72.34;101014.97;6589539;21;20544;-70
2024/04/20 11:30:01;;;;;;;2.40;0.98;;;;;;;7.52;71.98;101021.38;6592438;21;20240;-70
2024/04/20 11:32:34;;;;;;;0.90;0.70;;;;;;;7.78;74.84;101020.03;6589586;21;20288;-67
2024/04/20 11:35:11;;;;;;;2.58;1.15;;;;;;;8.59;70.25;101021.09;6589039;21;20240;-68
2024/04/20 11:37:48;;;;;;;9.07;4.75;;;;;;;9.00;64.69;101021.44;6589526;21;20306;-70
2024/04/20 11:40:22;;;;;;;1.90;1.08;;;;;;;9.45;60.50;101025.69;6589300;21;20227;-68
2024/04/20 11:43:06;;;;;;;3.80;1.98;;;;;;;9.40;60.70;101025.41;6588109;21;20266;-69
2024/04/20 11:45:57;;;;;;;5.72;1.98;;;;;;;9.47;56.09;101024.47;6549510;21;20250;-68
2024/04/20 11:48:55;;;;;;;1.60;1.02;;;;;;;9.19;57.57;101031.66;6589720;21;20250;-70
2024/04/20 11:54:21;;;;;;;3.07;1.40;;;;;;;9.56;58.03;101033.28;6589572;21;20459;-69
2024/04/20 11:56:56;;;;;;;0.90;0.50;;;;;;;9.38;55.73;101032.91;6593280;21;20505;-69
2024/04/20 11:59:33;;;;;;;2.85;2.22;;;;;;;9.50;54.35;101036.75;6592333;21;20434;-71
2024/04/20 12:02:09;;;;;;;1.00;0.67;;;;;;;10.30;53.35;101033.78;6588049;21;20244;-71
2024/04/20 12:04:45;;;;;;;1.57;0.70;;;;;;;10.28;50.01;101025.84;6581840;21;20435;-70
2024/04/20 12:07:17;;;;;;;4.40;1.83;;;;;;;10.45;51.07;101037.22;6578947;21;20580;-70
2024/04/20 12:09:49;;;;;;;1.97;1.17;;;;;;;9.94;47.62;101041.97;6579246;21;20443;-68
2024/04/20 12:12:22;;;;;;;3.28;1.67;;;;;;;9.31;47.32;101045.47;6578454;21;20577;-68
2024/04/20 12:14:58;;;;;;;4.90;2.13;;;;;;;9.32;46.01;101045.28;6578822;21;20224;-69
2024/04/20 12:17:31;;;;;;;1.02;0.70;;;;;;;9.84;47.83;101039.59;6577798;21;20228;-70
2024/04/20 12:20:04;;;;;;;0.80;0.50;;;;;;;10.38;45.33;101036.31;6578252;21;20228;-71
2024/04/20 12:22:39;;;;;;;0.80;0.50;;;;;;;9.99;44.18;101037.66;6580406;21;20272;-70
2024/04/20 12:25:15;;;;;;;0.87;0.60;;;;;;;9.56;44.82;101049.50;6580923;21;20261;-70
2024/04/20 12:27:50;;;;;;;1.27;0.70;;;;;;;9.41;45.35;101054.94;6580744;21;20500;-71
2024/04/20 12:33:24;;;;;;;0.80;0.50;;;;;;;9.85;44.10;101049.38;6578580;21;20546;-70
2024/04/20 12:35:58;;;;;;;1.10;0.70;;;;;;;10.24;44.05;101048.09;6578448;21;20263;-70
2024/04/20 12:38:38;;;;;;;1.17;0.60;;;;;;;10.52;44.07;101054.31;6578638;21;20228;-71
2024/04/20 12:41:20;;;;;;;1.17;0.53;;;;;;;10.43;44.38;101048.22;6536383;21;20467;-69